Time;durP1;ratioP1;P1;durP2;ratioP2;P2;SDS_P1;SDS_P2;PMS_P1;PMS_P2;Temp;Humidity;BMP_temperature;BMP_pressure;BME280_temperature;BME280_humidity;BME280_pressure;Samples;Min_cycle;Max_cycle;Signal;HPM_P1;HPM_P2
2022/06/10 00:01:25;;;;;;;11.43;10.23;;;;;;;15.52;100.00;98657.52;2236481;79;20966;-86
2022/06/10 00:04:26;;;;;;;10.82;9.85;;;;;;;15.52;100.00;98664.54;2235504;79;21703;-86
2022/06/10 00:07:34;;;;;;;10.80;9.70;;;;;;;15.55;100.00;98667.14;2235326;80;21026;-85
2022/06/10 00:10:29;;;;;;;12.47;10.28;;;;;;;15.55;100.00;98660.56;2236253;79;20970;-85
2022/06/10 00:13:30;;;;;;;12.05;10.45;;;;;;;15.50;99.96;98666.31;2236334;80;21010;-85
2022/06/10 00:16:31;;;;;;;11.78;10.48;;;;;;;15.45;100.00;98666.81;2235380;79;21003;-85
2022/06/10 00:19:31;;;;;;;11.15;9.90;;;;;;;15.39;99.77;98667.75;2234480;79;21042;-84
2022/06/10 00:22:31;;;;;;;12.55;10.58;;;;;;;15.36;99.73;98673.03;2233506;79;21038;-84
2022/06/10 00:25:31;;;;;;;10.88;9.78;;;;;;;15.34;99.75;98675.25;2234132;79;20994;-85
2022/06/10 00:28:32;;;;;;;10.98;9.88;;;;;;;15.29;99.59;98672.22;2233643;78;21025;-85
2022/06/10 00:31:32;;;;;;;11.12;10.05;;;;;;;15.27;99.69;98679.26;2235907;79;21389;-84
2022/06/10 00:34:35;;;;;;;10.18;9.28;;;;;;;15.27;99.69;98679.26;2236416;79;20963;-84
2022/06/10 00:37:33;;;;;;;10.45;9.50;;;;;;;15.28;99.68;98684.95;2217890;79;21227;-85
2022/06/10 00:40:33;;;;;;;12.47;9.58;;;;;;;15.27;99.55;98683.64;2209115;81;20980;-85
2022/06/10 00:43:34;;;;;;;11.57;10.35;;;;;;;15.25;99.41;98686.29;2208517;79;20952;-84
2022/06/10 00:46:34;;;;;;;14.80;11.33;;;;;;;15.24;99.36;98688.49;2209516;80;20964;-84
2022/06/10 00:49:35;;;;;;;13.60;12.40;;;;;;;15.23;99.67;98684.56;2209612;79;20984;-84
2022/06/10 00:52:37;;;;;;;17.73;12.43;;;;;;;15.20;99.33;98684.14;2195378;81;21016;-84
2022/06/10 00:55:37;;;;;;;18.62;13.62;;;;;;;15.20;99.50;98685.46;2209187;79;20956;-85
2022/06/10 00:58:40;;;;;;;13.22;11.35;;;;;;;15.21;99.74;98687.65;2209424;79;20996;-84
2022/06/10 01:01:38;;;;;;;11.15;10.03;;;;;;;15.20;99.74;98686.77;2209381;79;21308;-82
2022/06/10 01:04:42;;;;;;;11.75;10.75;;;;;;;15.15;99.44;98692.52;2209154;79;20960;-87
2022/06/10 01:07:39;;;;;;;11.38;10.28;;;;;;;15.17;99.39;98694.69;2209354;79;20937;-85
2022/06/10 01:10:39;;;;;;;10.08;9.15;;;;;;;15.06;97.89;98686.47;2210314;79;20921;-85
2022/06/10 01:13:40;;;;;;;13.83;10.30;;;;;;;15.01;98.97;98687.83;2210076;79;20929;-85
2022/06/10 01:16:42;;;;;;;10.72;9.83;;;;;;;15.02;99.70;98683.00;2196686;81;20980;-85
2022/06/10 01:19:42;;;;;;;15.13;12.40;;;;;;;15.02;99.80;98681.69;2209439;79;20925;-86
2022/06/10 01:22:43;;;;;;;14.20;11.12;;;;;;;15.02;99.86;98684.75;2208626;79;21007;-85
2022/06/10 01:25:43;;;;;;;12.95;11.18;;;;;;;15.01;100.00;98684.33;2207461;79;21018;-85
2022/06/10 01:28:44;;;;;;;14.07;12.35;;;;;;;14.99;99.95;98680.39;2207663;79;20981;-85
2022/06/10 01:31:44;;;;;;;14.10;11.85;;;;;;;14.94;99.88;98685.69;2207801;79;21036;-85
2022/06/10 01:34:46;;;;;;;13.30;12.00;;;;;;;14.89;99.98;98683.98;2207472;79;21011;-85
2022/06/10 01:37:45;;;;;;;11.25;10.15;;;;;;;14.87;100.00;98685.75;2208488;79;20953;-86
2022/06/10 01:40:45;;;;;;;13.60;12.25;;;;;;;14.83;100.00;98680.09;2209525;79;20937;-85
2022/06/10 01:43:46;;;;;;;13.62;12.37;;;;;;;14.83;100.00;98682.72;2209777;79;20984;-85
2022/06/10 01:46:46;;;;;;;14.07;12.55;;;;;;;14.84;100.00;98689.72;2209720;79;20897;-84
2022/06/10 01:49:46;;;;;;;17.15;15.55;;;;;;;14.86;100.00;98699.33;2209059;79;21356;-84
2022/06/10 01:52:47;;;;;;;19.70;17.70;;;;;;;14.92;100.00;98706.30;2209437;79;21394;-84
2022/06/10 01:55:47;;;;;;;13.95;12.65;;;;;;;14.98;100.00;98704.94;2209742;79;20893;-84
2022/06/10 01:58:48;;;;;;;15.03;13.60;;;;;;;15.04;100.00;98704.02;2209936;79;20979;-83
2022/06/10 02:01:49;;;;;;;13.22;11.63;;;;;;;15.03;100.00;98712.78;2208589;79;21033;-84
2022/06/10 02:04:49;;;;;;;13.35;11.97;;;;;;;15.04;100.00;98709.27;2208939;79;20982;-84
2022/06/10 02:07:50;;;;;;;13.32;11.88;;;;;;;15.04;100.00;98707.52;2209889;79;20929;-85
2022/06/10 02:10:50;;;;;;;12.20;10.95;;;;;;;15.08;100.00;98719.75;2209538;79;20932;-84
2022/06/10 02:13:51;;;;;;;12.88;11.68;;;;;;;15.13;100.00;98724.97;2209312;79;21367;-84
2022/06/10 02:16:52;;;;;;;16.17;11.70;;;;;;;15.17;100.00;98725.37;2208073;79;20917;-84
2022/06/10 02:19:51;;;;;;;15.20;12.55;;;;;;;15.19;100.00;98722.28;2207868;79;21254;-84
2022/06/10 02:22:52;;;;;;;14.87;13.35;;;;;;;15.20;100.00;98722.27;2207729;79;21398;-86
2022/06/10 02:25:52;;;;;;;15.43;13.30;;;;;;;15.21;100.00;98722.70;2208511;79;20901;-85
2022/06/10 02:28:53;;;;;;;16.70;13.70;;;;;;;15.21;100.00;98720.07;2207925;79;20999;-83
2022/06/10 02:31:53;;;;;;;16.12;14.53;;;;;;;15.24;100.00;98725.75;2208576;79;20996;-84
2022/06/10 02:34:54;;;;;;;17.00;14.75;;;;;;;15.26;100.00;98727.92;2208247;79;21144;-84
2022/06/10 02:37:54;;;;;;;18.40;16.42;;;;;;;15.30;100.00;98734.89;2207910;79;20988;-84
2022/06/10 02:40:54;;;;;;;17.80;15.45;;;;;;;15.32;100.00;98733.13;2207792;79;20999;-83
2022/06/10 02:43:55;;;;;;;19.12;15.25;;;;;;;15.32;100.00;98739.70;2207917;79;20972;-84
2022/06/10 02:46:55;;;;;;;19.70;16.45;;;;;;;15.35;100.00;98744.06;2207970;79;21299;-83
2022/06/10 02:49:56;;;;;;;22.20;16.77;;;;;;;15.37;100.00;98749.73;2208349;79;21076;-85
2022/06/10 02:52:56;;;;;;;23.30;16.80;;;;;;;15.40;100.00;98752.78;2208867;79;21296;-85
2022/06/10 02:55:56;;;;;;;22.98;17.25;;;;;;;15.43;100.00;98763.27;2208722;79;20881;-86
2022/06/10 03:02:16;;;;;;;30.48;18.27;;;;;;;15.47;100.00;98771.56;2208694;81;20996;-85
2022/06/10 03:05:16;;;;;;;35.38;21.57;;;;;;;15.52;100.00;98781.16;2208768;79;20967;-83
2022/06/10 03:08:16;;;;;;;34.95;21.73;;;;;;;15.56;100.00;98771.48;2209381;79;21330;-85
2022/06/10 03:11:17;;;;;;;30.40;19.87;;;;;;;15.58;100.00;98771.06;2209905;79;20897;-85
2022/06/10 03:14:17;;;;;;;28.27;18.92;;;;;;;15.62;100.00;98766.23;2208643;79;20987;-85
2022/06/10 03:17:18;;;;;;;39.60;19.62;;;;;;;15.65;100.00;98777.17;2210136;81;20941;-85
2022/06/10 03:20:20;;;;;;;29.00;18.73;;;;;;;15.64;100.00;98785.50;2209214;79;21383;-87
2022/06/10 03:23:22;;;;;;;30.32;18.27;;;;;;;15.60;100.00;98785.98;2209151;79;20977;-86
2022/06/10 03:26:21;;;;;;;33.95;19.92;;;;;;;15.64;100.00;98792.53;2207904;79;20991;-87
2022/06/10 03:29:22;;;;;;;30.90;18.55;;;;;;;15.63;100.00;98794.28;2207851;79;21505;-85
2022/06/10 03:32:22;;;;;;;40.03;19.20;;;;;;;15.65;100.00;98791.64;2208077;79;20944;-85
2022/06/10 03:35:22;;;;;;;45.60;19.85;;;;;;;15.70;100.00;98800.36;2207894;79;20960;-85
2022/06/10 03:38:23;;;;;;;37.93;20.82;;;;;;;15.72;100.00;98804.72;2227554;79;20987;-84
2022/06/10 03:41:23;;;;;;;39.45;19.67;;;;;;;15.72;100.00;98807.36;2234561;79;21456;-85
2022/06/10 03:44:24;;;;;;;32.25;19.30;;;;;;;15.72;100.00;98810.43;2236053;79;20955;-85
2022/06/10 03:47:25;;;;;;;33.02;17.40;;;;;;;15.71;100.00;98802.98;2235110;79;20955;-83
2022/06/10 03:50:24;;;;;;;31.77;17.73;;;;;;;15.71;100.00;98813.50;2234988;78;20908;-82
2022/06/10 03:53:25;;;;;;;33.63;18.85;;;;;;;15.70;100.00;98820.09;2234935;79;21038;-84
2022/06/10 03:56:25;;;;;;;27.67;17.10;;;;;;;15.70;100.00;98822.73;2234591;79;21350;-83
2022/06/10 03:59:26;;;;;;;25.55;17.87;;;;;;;15.71;100.00;98821.41;2235719;79;20987;-84
2022/06/10 04:02:26;;;;;;;30.82;18.23;;;;;;;15.74;100.00;98825.32;2236916;79;20932;-84
2022/06/10 04:05:27;;;;;;;31.37;19.92;;;;;;;15.72;100.00;98833.67;2237257;79;20955;-83
2022/06/10 04:08:27;;;;;;;27.10;20.23;;;;;;;15.73;100.00;98829.28;2237384;78;20931;-82
2022/06/10 04:11:30;;;;;;;28.02;19.05;;;;;;;15.73;100.00;98829.28;2235928;79;20920;-80
2022/06/10 04:14:30;;;;;;;25.88;19.40;;;;;;;15.78;100.00;98833.61;2214322;80;20963;-80
2022/06/10 04:17:30;;;;;;;27.70;19.32;;;;;;;15.85;100.00;98837.06;2235561;79;20971;-82
2022/06/10 04:20:31;;;;;;;24.43;19.95;;;;;;;15.91;100.00;98839.64;2234654;80;20995;-80
2022/06/10 04:23:32;;;;;;;27.25;19.75;;;;;;;15.99;100.00;98842.19;2234343;79;20974;-82
2022/06/10 04:26:31;;;;;;;25.85;18.87;;;;;;;16.02;100.00;98846.11;2234840;80;20923;-81
2022/06/10 04:29:32;;;;;;;24.63;19.35;;;;;;;16.04;100.00;98846.97;2233960;79;20963;-81
2022/06/10 04:32:35;;;;;;;22.80;18.67;;;;;;;16.07;100.00;98856.16;2233698;79;20967;-84
2022/06/10 04:35:36;;;;;;;27.02;19.87;;;;;;;16.07;100.00;98854.84;2234143;79;20971;-81
2022/06/10 04:38:36;;;;;;;27.60;19.95;;;;;;;16.08;100.00;98864.03;2233469;79;21042;-82
2022/06/10 04:41:36;;;;;;;28.17;20.02;;;;;;;16.10;100.00;98866.66;2234444;79;20963;-82
2022/06/10 04:44:43;;;;;;;30.62;20.82;;;;;;;16.13;100.00;98870.58;2233559;79;20943;-82
2022/06/10 04:47:43;;;;;;;29.10;21.17;;;;;;;16.17;100.00;98874.92;2233869;79;20991;-80
2022/06/10 04:50:45;;;;;;;31.33;22.02;;;;;;;16.28;100.00;98876.12;2233565;79;20963;-79
2022/06/10 04:53:44;;;;;;;30.72;22.50;;;;;;;16.35;100.00;98876.05;2233021;79;21014;-82
2022/06/10 04:56:45;;;;;;;31.10;22.75;;;;;;;16.41;100.00;98880.37;2233707;79;20978;-81
2022/06/10 04:59:45;;;;;;;35.13;23.85;;;;;;;16.45;100.00;98880.33;2233921;79;21130;-81
2022/06/10 05:02:46;;;;;;;31.10;22.30;;;;;;;16.55;100.00;98888.58;2233959;79;21026;-82
2022/06/10 05:05:46;;;;;;;33.83;24.82;;;;;;;16.66;100.00;98888.94;2233512;79;20959;-83
2022/06/10 05:08:47;;;;;;;37.50;26.68;;;;;;;16.67;100.00;98890.23;2233808;79;20912;-82
2022/06/10 05:11:47;;;;;;;37.53;25.68;;;;;;;16.69;100.00;98888.91;2233631;79;20971;-82
2022/06/10 05:14:47;;;;;;;35.95;26.52;;;;;;;16.73;100.00;98898.07;2232734;80;20959;-80
2022/06/10 05:17:48;;;;;;;39.05;25.43;;;;;;;16.80;100.00;98898.87;2233059;79;20967;-82
2022/06/10 05:20:48;;;;;;;42.93;27.35;;;;;;;16.84;100.00;98900.12;2232828;80;21002;-81
2022/06/10 05:23:48;;;;;;;39.15;27.58;;;;;;;16.90;100.00;98908.41;2232319;79;21791;-79
2022/06/10 05:26:49;;;;;;;37.75;27.45;;;;;;;16.98;100.00;98915.77;2232120;80;20979;-80
2022/06/10 05:29:49;;;;;;;38.58;27.13;;;;;;;17.02;100.00;98917.48;2232307;79;20947;-79
2022/06/10 05:32:50;;;;;;;38.25;27.90;;;;;;;16.99;100.00;98926.75;2231858;79;20940;-80
2022/06/10 05:35:53;;;;;;;35.33;25.87;;;;;;;16.91;100.00;98931.25;2231965;80;21050;-80
2022/06/10 05:38:55;;;;;;;37.25;26.57;;;;;;;16.92;100.00;98926.84;2213021;80;21043;-81
2022/06/10 05:42:06;;;;;;;36.83;27.55;;;;;;;16.90;100.00;98939.17;2206540;79;21343;-85
2022/06/10 05:45:14;;;;;;;37.48;27.65;;;;;;;16.91;100.00;98943.55;2206201;79;21011;-82
2022/06/10 05:48:13;;;;;;;44.53;28.73;;;;;;;16.94;100.00;98944.39;2206828;79;21026;-83
2022/06/10 05:51:13;;;;;;;38.10;28.75;;;;;;;17.00;100.00;98944.77;2207041;79;21083;-81
2022/06/10 05:54:13;;;;;;;41.73;29.37;;;;;;;17.06;100.00;98942.05;2206132;81;21012;-82
2022/06/10 05:57:14;;;;;;;33.15;27.40;;;;;;;17.12;100.00;98948.11;2205946;79;21011;-80
2022/06/10 06:00:14;;;;;;;37.60;27.93;;;;;;;17.23;100.00;98950.61;2205884;81;21419;-82
2022/06/10 06:03:15;;;;;;;37.45;27.52;;;;;;;17.33;100.00;98953.55;2206351;79;21008;-83
2022/06/10 06:06:15;;;;;;;36.25;27.27;;;;;;;17.39;100.00;98954.83;2207167;79;20964;-81
2022/06/10 06:09:16;;;;;;;40.63;30.57;;;;;;;17.48;100.00;98958.66;2207091;79;21019;-84
2022/06/10 06:12:16;;;;;;;41.90;29.60;;;;;;;17.56;99.75;98954.59;2206631;81;20956;-83
2022/06/10 06:15:16;;;;;;;40.30;31.07;;;;;;;17.64;99.41;98959.30;2205964;80;21831;-82
2022/06/10 06:18:17;;;;;;;48.08;33.92;;;;;;;17.65;99.03;98967.65;2205736;79;21050;-84
2022/06/10 06:21:18;;;;;;;44.90;32.60;;;;;;;17.60;98.87;98967.29;2205571;79;20965;-83
2022/06/10 06:24:17;;;;;;;40.73;32.35;;;;;;;17.59;98.98;98965.09;2205204;80;21035;-82
2022/06/10 06:27:18;;;;;;;40.10;31.48;;;;;;;17.70;99.00;98967.61;2205851;79;20984;-83
2022/06/10 06:30:18;;;;;;;47.43;34.13;;;;;;;17.79;98.69;98974.08;2205827;79;21074;-82
2022/06/10 06:33:19;;;;;;;46.58;32.40;;;;;;;17.87;98.26;98979.23;2205418;79;21416;-83
2022/06/10 06:36:19;;;;;;;45.40;32.15;;;;;;;18.02;97.50;98980.32;2205569;79;21047;-82
2022/06/10 06:39:19;;;;;;;44.00;33.50;;;;;;;18.28;96.53;98986.08;2226938;79;21050;-84
2022/06/10 06:42:21;;;;;;;41.60;31.82;;;;;;;18.54;95.61;98987.39;2233548;79;21376;-81
2022/06/10 06:45:20;;;;;;;38.73;32.98;;;;;;;18.65;95.00;98993.39;2233031;80;20996;-82
2022/06/10 06:48:21;;;;;;;40.40;32.73;;;;;;;18.60;94.44;98997.86;2233216;80;20947;-84
2022/06/10 06:51:21;;;;;;;38.92;32.17;;;;;;;18.44;93.83;99002.55;2234133;80;20972;-83
2022/06/10 06:54:21;;;;;;;43.92;33.63;;;;;;;18.34;94.08;99004.47;2233903;79;21110;-84
2022/06/10 06:57:22;;;;;;;44.35;35.78;;;;;;;18.26;94.67;99007.69;2234032;79;20974;-82
2022/06/10 07:00:22;;;;;;;45.90;35.23;;;;;;;18.23;94.98;99014.80;2233927;79;21349;-82
2022/06/10 07:03:23;;;;;;;43.90;35.55;;;;;;;18.20;95.15;99020.09;2234271;79;20991;-84
2022/06/10 07:06:23;;;;;;;40.63;32.40;;;;;;;18.20;94.98;99020.09;2234455;79;21014;-84
2022/06/10 07:09:23;;;;;;;39.10;32.42;;;;;;;18.15;94.90;99017.53;2234017;79;21015;-84
2022/06/10 07:12:24;;;;;;;39.88;32.50;;;;;;;18.17;95.01;99018.37;2233891;79;20978;-83
2022/06/10 07:15:24;;;;;;;42.23;32.67;;;;;;;18.22;94.62;99023.17;2233987;79;21260;-84
2022/06/10 07:18:25;;;;;;;36.58;31.07;;;;;;;18.24;94.69;99019.19;2235314;79;21010;-85
2022/06/10 07:21:27;;;;;;;37.88;32.73;;;;;;;18.25;94.69;99021.80;2236059;79;21272;-85
2022/06/10 07:24:28;;;;;;;43.23;34.65;;;;;;;18.30;94.52;99025.24;2234480;80;21128;-86
2022/06/10 07:27:29;;;;;;;36.42;30.08;;;;;;;18.36;94.40;99027.78;2234117;79;21030;-84
2022/06/10 07:30:29;;;;;;;32.78;29.27;;;;;;;18.37;93.95;99032.17;2233980;79;21331;-85
2022/06/10 07:33:30;;;;;;;38.58;30.05;;;;;;;18.51;93.78;99031.06;2233528;80;21038;-84
2022/06/10 07:36:30;;;;;;;33.88;27.10;;;;;;;18.80;93.39;99034.55;2234312;79;20943;-86
2022/06/10 07:39:30;;;;;;;27.77;24.55;;;;;;;19.29;91.23;99031.86;2233772;79;21462;-84
2022/06/10 07:42:34;;;;;;;28.98;24.47;;;;;;;19.71;89.23;99032.77;2234327;79;20998;-82
2022/06/10 07:45:35;;;;;;;25.00;22.32;;;;;;;19.97;87.43;99036.19;2233555;79;21027;-79
2022/06/10 07:48:34;;;;;;;25.10;20.15;;;;;;;20.08;87.29;99038.13;2211733;80;21002;-80
2022/06/10 07:51:34;;;;;;;20.82;18.73;;;;;;;20.10;86.41;99040.29;2233695;79;20931;-79
2022/06/10 07:54:34;;;;;;;21.62;19.25;;;;;;;19.92;85.08;99041.55;2231888;79;21027;-78
2022/06/10 07:57:35;;;;;;;22.90;20.60;;;;;;;19.88;85.58;99034.58;2231491;79;21358;-79
2022/06/10 08:00:35;;;;;;;21.27;19.27;;;;;;;19.97;86.44;99038.83;2231167;79;20947;-80
2022/06/10 08:03:36;;;;;;;23.67;21.23;;;;;;;20.15;86.36;99036.20;2231671;79;21031;-81
2022/06/10 08:06:36;;;;;;;24.32;20.15;;;;;;;20.21;84.57;99040.91;2233138;79;20967;-80
2022/06/10 08:09:36;;;;;;;21.07;18.98;;;;;;;20.16;83.38;99042.80;2233209;79;21042;-81
2022/06/10 08:12:38;;;;;;;19.32;17.57;;;;;;;20.23;83.72;99043.52;2234158;79;20920;-80
2022/06/10 08:15:37;;;;;;;18.65;16.80;;;;;;;20.66;83.21;99043.36;2233816;80;20967;-80
2022/06/10 08:18:38;;;;;;;18.52;16.70;;;;;;;21.06;81.44;99044.98;2233691;79;21045;-80
2022/06/10 08:24:57;;;;;;;17.82;16.05;;;;;;;21.27;79.08;99042.64;2229919;80;21105;-78
2022/06/10 08:27:58;;;;;;;18.52;16.82;;;;;;;21.02;80.23;99042.88;2233403;79;20919;-81
2022/06/10 08:30:58;;;;;;;20.57;18.37;;;;;;;20.78;81.15;99050.13;2234427;79;20944;-81
2022/06/10 08:33:59;;;;;;;20.12;17.80;;;;;;;20.59;82.06;99048.41;2233252;80;21015;-82
2022/06/10 08:37:01;;;;;;;18.20;16.30;;;;;;;20.49;81.46;99058.83;2233702;78;20975;-81
2022/06/10 08:40:00;;;;;;;18.00;16.17;;;;;;;20.23;82.64;99054.99;2210010;79;21055;-75
2022/06/10 08:43:01;;;;;;;19.30;16.52;;;;;;;20.15;83.40;99060.93;2204198;79;20972;-80
2022/06/10 08:46:04;;;;;;;17.85;16.17;;;;;;;20.23;82.03;99065.59;2205825;79;21403;-82
2022/06/10 08:49:05;;;;;;;16.02;14.38;;;;;;;20.32;82.22;99073.33;2206512;81;20960;-81
2022/06/10 08:52:05;;;;;;;16.50;14.73;;;;;;;20.56;81.05;99075.00;2205911;79;21013;-79
2022/06/10 08:55:07;;;;;;;14.38;13.03;;;;;;;20.76;80.81;99070.06;2191855;81;21004;-80
2022/06/10 08:58:11;;;;;;;13.50;12.28;;;;;;;20.99;79.16;99063.73;2205633;79;21007;-81
2022/06/10 09:01:11;;;;;;;15.23;12.93;;;;;;;21.08;79.32;99065.72;2206247;81;20968;-81
2022/06/10 09:04:11;;;;;;;12.68;11.18;;;;;;;20.97;79.89;99072.19;2206154;79;20933;-83
2022/06/10 09:07:18;;;;;;;11.75;10.53;;;;;;;20.94;79.30;99075.38;2205368;81;20976;-79
2022/06/10 09:10:19;;;;;;;11.12;10.15;;;;;;;20.84;79.15;99076.53;2205955;81;21459;-79
2022/06/10 09:13:21;;;;;;;9.75;8.75;;;;;;;20.84;79.26;99077.86;2205786;79;21388;-80
2022/06/10 09:16:22;;;;;;;10.60;9.70;;;;;;;21.01;78.84;99087.58;2206829;79;20999;-80
2022/06/10 09:19:22;;;;;;;12.55;11.35;;;;;;;21.26;77.44;99085.16;2206747;79;20972;-80
2022/06/10 09:22:25;;;;;;;11.30;10.40;;;;;;;21.52;76.08;99099.91;2206827;81;20948;-79
2022/06/10 09:25:26;;;;;;;11.78;10.68;;;;;;;21.74;74.61;99093.55;2205877;79;21016;-78
2022/06/10 09:28:26;;;;;;;10.63;9.73;;;;;;;21.89;73.63;99097.08;2203711;79;21236;-79
2022/06/10 09:31:27;;;;;;;10.10;9.13;;;;;;;22.11;72.11;99092.02;2202341;79;20968;-80
2022/06/10 09:34:27;;;;;;;11.25;10.25;;;;;;;22.36;73.12;99105.88;2202295;79;21386;-80
2022/06/10 09:37:27;;;;;;;9.70;8.68;;;;;;;22.47;71.37;99103.74;2204824;79;20968;-80
2022/06/10 09:40:37;;;;;;;11.45;10.50;;;;;;;22.35;70.58;99102.80;2229262;79;21255;-80
2022/06/10 09:43:39;;;;;;;10.88;9.98;;;;;;;22.28;70.17;99117.21;2231825;79;20923;-81
2022/06/10 09:46:39;;;;;;;10.70;9.70;;;;;;;22.18;69.22;99117.50;2233915;78;20975;-82
2022/06/10 09:49:38;;;;;;;11.93;10.78;;;;;;;22.20;69.93;99114.33;2234378;80;21965;-82
2022/06/10 09:52:39;;;;;;;10.63;9.55;;;;;;;22.32;68.42;99118.39;2233250;80;21026;-81
2022/06/10 09:55:40;;;;;;;11.12;10.23;;;;;;;22.32;69.28;99119.73;2233411;79;21047;-80
2022/06/10 09:58:39;;;;;;;16.67;14.90;;;;;;;22.30;69.29;99118.91;2233638;79;20995;-81
2022/06/10 10:01:41;;;;;;;17.00;15.43;;;;;;;22.15;70.52;99119.38;2233277;79;20975;-83
2022/06/10 10:04:40;;;;;;;19.17;17.12;;;;;;;21.81;71.45;99127.45;2234234;80;20993;-82
2022/06/10 10:07:40;;;;;;;18.25;16.65;;;;;;;21.64;71.62;99127.91;2234058;79;21388;-79
2022/06/10 10:10:41;;;;;;;18.05;16.45;;;;;;;21.86;72.06;99122.42;2232640;79;20967;-78
2022/06/10 10:13:41;;;;;;;19.02;17.17;;;;;;;22.02;70.48;99118.84;2234002;79;20955;-81
2022/06/10 10:16:42;;;;;;;19.35;17.20;;;;;;;22.09;70.43;99132.40;2235372;79;20998;-80
2022/06/10 10:19:42;;;;;;;20.30;18.42;;;;;;;22.29;70.01;99125.60;2231941;79;21002;-79
2022/06/10 10:22:43;;;;;;;20.55;18.45;;;;;;;22.66;69.54;99127.53;2232857;79;20982;-80
2022/06/10 10:25:44;;;;;;;19.90;18.07;;;;;;;22.96;67.47;99126.14;2231934;80;21013;-78
2022/06/10 10:28:43;;;;;;;20.02;18.10;;;;;;;23.00;68.01;99131.77;2233546;79;21354;-79
2022/06/10 10:31:44;;;;;;;21.25;18.35;;;;;;;23.19;68.38;99134.20;2233089;79;21061;-79
2022/06/10 10:34:44;;;;;;;19.23;17.35;;;;;;;23.36;67.70;99133.16;2231747;78;21014;-79
2022/06/10 10:37:44;;;;;;;18.25;16.55;;;;;;;23.31;67.17;99130.25;2232726;79;20998;-80
2022/06/10 10:40:51;;;;;;;19.92;17.77;;;;;;;23.22;66.57;99130.56;2233621;80;21646;-80
2022/06/10 10:43:51;;;;;;;20.12;18.23;;;;;;;23.26;66.81;99136.20;2235052;79;20998;-79
2022/06/10 10:46:52;;;;;;;18.62;16.82;;;;;;;23.23;66.52;99135.84;2233929;80;20900;-80
2022/06/10 10:49:52;;;;;;;19.70;17.67;;;;;;;23.47;66.70;99144.33;2234630;79;21005;-79
2022/06/10 10:52:53;;;;;;;19.00;17.02;;;;;;;23.68;66.10;99139.19;2234478;79;20944;-81
2022/06/10 10:55:53;;;;;;;18.10;16.30;;;;;;;23.73;64.86;99139.88;2234283;79;20986;-79
2022/06/10 10:58:54;;;;;;;17.02;15.43;;;;;;;23.64;64.60;99139.76;2233656;79;20973;-80
2022/06/10 11:01:54;;;;;;;17.15;15.65;;;;;;;23.53;64.98;99142.38;2233631;79;21014;-79
2022/06/10 11:04:54;;;;;;;18.07;16.20;;;;;;;23.64;64.79;99142.42;2234254;79;21294;-80
2022/06/10 11:07:55;;;;;;;16.73;14.93;;;;;;;23.68;64.79;99137.39;2233457;79;20963;-79
2022/06/10 11:11:01;;;;;;;17.48;15.30;;;;;;;23.49;63.88;99146.48;2232416;79;20975;-81
2022/06/10 11:14:01;;;;;;;17.05;14.40;;;;;;;23.20;64.25;99143.94;2233276;79;20955;-78
2022/06/10 11:17:02;;;;;;;16.37;14.70;;;;;;;22.73;65.99;99145.50;2233005;80;21013;-80
2022/06/10 11:20:02;;;;;;;15.65;14.07;;;;;;;22.51;66.80;99151.94;2232022;79;21026;-82
2022/06/10 11:23:03;;;;;;;16.48;15.00;;;;;;;22.37;67.17;99157.69;2233780;79;20923;-81
2022/06/10 11:26:03;;;;;;;17.95;14.58;;;;;;;22.36;67.34;99157.27;2235244;79;20995;-80
2022/06/10 11:29:03;;;;;;;16.17;14.55;;;;;;;22.47;67.17;99160.47;2234885;80;20959;-79
2022/06/10 11:32:04;;;;;;;16.30;14.63;;;;;;;22.63;67.28;99148.91;2232276;79;20896;-80
2022/06/10 11:35:04;;;;;;;15.05;13.53;;;;;;;22.83;67.17;99151.84;2231889;79;21406;-78
2022/06/10 11:38:05;;;;;;;16.15;14.73;;;;;;;22.70;67.53;99163.77;2229800;80;21290;-78
2022/06/10 11:41:05;;;;;;;15.23;13.83;;;;;;;22.23;68.24;99160.77;2229541;79;20974;-78
2022/06/10 11:44:06;;;;;;;14.25;12.95;;;;;;;22.04;68.39;99166.22;2230048;79;20983;-78
2022/06/10 11:47:06;;;;;;;14.68;13.18;;;;;;;22.01;68.58;99160.96;2230008;79;20963;-80
2022/06/10 11:50:06;;;;;;;14.73;13.28;;;;;;;22.04;68.40;99166.22;2231103;79;20983;-80
2022/06/10 11:53:07;;;;;;;13.70;12.60;;;;;;;22.17;68.71;99172.92;2232070;79;20979;-80
2022/06/10 11:59:45;;;;;;;12.23;11.10;;;;;;;22.52;66.94;99166.52;2233669;80;21030;-80
2022/06/10 12:02:45;;;;;;;9.93;9.08;;;;;;;22.84;66.72;99160.23;2233466;79;20919;-80
2022/06/10 12:05:45;;;;;;;10.28;9.28;;;;;;;22.85;65.85;99163.76;2232853;79;21014;-80
2022/06/10 12:08:46;;;;;;;10.38;9.58;;;;;;;22.67;66.47;99161.20;2232498;80;21407;-80
2022/06/10 12:11:46;;;;;;;11.35;10.35;;;;;;;22.49;66.78;99164.41;2232970;79;21305;-82
2022/06/10 12:14:46;;;;;;;10.30;9.55;;;;;;;22.21;66.77;99175.03;2232738;79;21010;-84
2022/06/10 12:17:47;;;;;;;11.18;10.08;;;;;;;21.93;67.56;99159.86;2233163;79;20999;-86
2022/06/10 12:20:47;;;;;;;10.48;9.68;;;;;;;21.75;69.07;99167.48;2233279;79;20940;-83
2022/06/10 12:23:48;;;;;;;10.90;9.60;;;;;;;21.68;69.30;99173.43;2233252;80;20963;-83
2022/06/10 12:26:49;;;;;;;10.25;9.45;;;;;;;21.58;69.16;99172.78;2232445;78;20987;-82
2022/06/10 12:29:49;;;;;;;11.08;10.13;;;;;;;21.76;69.96;99166.58;2232413;79;20991;-84
2022/06/10 12:32:51;;;;;;;10.50;9.73;;;;;;;21.80;69.78;99174.41;2211044;80;20979;-82
2022/06/10 12:35:52;;;;;;;11.57;10.48;;;;;;;21.53;69.88;99177.34;2233100;79;20978;-83
2022/06/10 12:38:52;;;;;;;11.03;10.13;;;;;;;21.20;70.08;99180.86;2232887;79;20959;-82
2022/06/10 12:41:52;;;;;;;11.50;10.30;;;;;;;21.05;71.22;99187.89;2205912;79;20972;-82
2022/06/10 12:44:52;;;;;;;10.90;9.95;;;;;;;21.24;70.50;99183.89;2206488;79;20968;-82
2022/06/10 12:47:53;;;;;;;10.78;9.70;;;;;;;21.46;70.77;99186.39;2207044;81;20999;-82
2022/06/10 12:50:53;;;;;;;11.97;10.48;;;;;;;21.98;69.75;99178.33;2206883;79;20991;-82
2022/06/10 12:53:54;;;;;;;10.10;9.25;;;;;;;22.56;67.85;99176.17;2207810;81;20972;-85
2022/06/10 12:56:54;;;;;;;10.45;9.50;;;;;;;23.06;65.98;99173.70;2206487;81;21076;-80
2022/06/10 12:59:55;;;;;;;10.25;9.35;;;;;;;23.27;63.87;99177.88;2206512;81;20972;-83
2022/06/10 13:02:55;;;;;;;10.05;9.15;;;;;;;23.06;63.54;99178.15;2205682;79;20944;-84
2022/06/10 13:05:56;;;;;;;10.28;9.38;;;;;;;23.02;64.23;99189.83;2206042;79;21058;-84
2022/06/10 13:08:57;;;;;;;10.40;9.60;;;;;;;23.07;63.90;99180.77;2204991;79;20968;-83
2022/06/10 13:11:56;;;;;;;12.50;10.03;;;;;;;22.96;63.97;99178.05;2205448;79;20948;-82
2022/06/10 13:14:57;;;;;;;13.78;10.32;;;;;;;22.81;65.37;99180.75;2205957;79;20981;-84
2022/06/10 13:17:57;;;;;;;11.25;9.75;;;;;;;22.74;65.36;99172.06;2207637;79;20948;-84
2022/06/10 13:20:57;;;;;;;11.10;9.85;;;;;;;22.62;65.78;99176.91;2207736;79;20889;-84
2022/06/10 13:23:58;;;;;;;10.75;9.85;;;;;;;22.39;65.81;99182.91;2207122;79;20917;-84
2022/06/10 13:26:58;;;;;;;11.65;10.45;;;;;;;22.28;66.45;99177.91;2206210;79;21047;-84
2022/06/10 13:29:59;;;;;;;10.90;9.80;;;;;;;22.27;67.08;99181.49;2206790;79;21313;-84
2022/06/10 13:32:59;;;;;;;12.03;10.93;;;;;;;22.17;67.17;99187.55;2208045;79;20956;-83
2022/06/10 13:36:02;;;;;;;13.55;10.72;;;;;;;21.96;67.60;99177.50;2208242;79;20980;-83
2022/06/10 13:39:03;;;;;;;12.68;10.75;;;;;;;21.67;68.26;99191.58;2209958;79;20991;-85
2022/06/10 13:42:04;;;;;;;10.90;9.98;;;;;;;21.41;69.11;99198.05;2192489;81;21329;-82
2022/06/10 13:45:04;;;;;;;11.83;10.75;;;;;;;21.25;69.65;99192.27;2237083;78;20939;-85
2022/06/10 13:48:06;;;;;;;11.12;10.15;;;;;;;21.13;70.01;99201.84;2236267;79;20916;-81
2022/06/10 13:51:28;;;;;;;9.30;8.60;;;;;;;21.04;70.51;99184.81;2234758;79;20986;-88
2022/06/10 13:54:29;;;;;;;10.50;9.60;;;;;;;21.35;70.62;99179.63;2211475;80;21256;-87
2022/06/10 13:57:29;;;;;;;10.72;9.05;;;;;;;21.56;69.09;99185.23;2233820;79;21022;-84
2022/06/10 14:00:30;;;;;;;10.38;9.48;;;;;;;21.75;68.09;99198.05;2233431;79;20994;-83